createdAt,value
2019-04-25T00:00:11.750Z,10.40
2019-04-25T00:02:42.688Z,10.40
2019-04-25T00:05:14.451Z,10.30
2019-04-25T00:07:43.891Z,10.40
2019-04-25T00:10:13.777Z,10.30
2019-04-25T00:12:43.722Z,10.30
2019-04-25T00:15:13.360Z,10.30
2019-04-25T00:17:44.325Z,10.30
2019-04-25T00:20:13.394Z,10.20
2019-04-25T00:22:43.839Z,10.20
2019-04-25T00:25:17.570Z,10.10
2019-04-25T00:27:46.024Z,10.10
2019-04-25T00:30:15.520Z,10.00
2019-04-25T00:32:45.258Z,10.00
2019-04-25T00:35:14.187Z,9.90
2019-04-25T00:37:44.339Z,9.80
2019-04-25T00:40:13.622Z,9.70
2019-04-25T00:42:43.584Z,9.60
2019-04-25T00:45:14.031Z,9.60
2019-04-25T00:47:43.875Z,9.50
2019-04-25T00:50:13.610Z,9.40
2019-04-25T00:52:43.516Z,9.40
2019-04-25T00:55:14.346Z,9.40
2019-04-25T00:57:44.815Z,9.40
2019-04-25T01:00:15.823Z,9.40
2019-04-25T01:02:46.010Z,9.40
2019-04-25T01:05:14.839Z,9.40
2019-04-25T01:07:44.388Z,9.40
2019-04-25T01:10:13.733Z,9.40
2019-04-25T01:12:42.550Z,9.40
2019-04-25T01:15:13.223Z,9.30
2019-04-25T01:17:41.957Z,9.30
2019-04-25T01:20:11.265Z,9.30
2019-04-25T01:22:40.124Z,9.20
2019-04-25T01:25:10.469Z,9.20
2019-04-25T01:27:39.524Z,9.20
2019-04-25T01:30:09.996Z,9.20
2019-04-25T01:32:38.941Z,9.10
2019-04-25T01:35:10.461Z,9.10
2019-04-25T01:37:39.178Z,9.10
2019-04-25T01:40:09.757Z,9.20
2019-04-25T01:42:40.164Z,9.20
2019-04-25T01:45:09.540Z,9.20
2019-04-25T01:47:38.238Z,9.20
2019-04-25T01:50:08.095Z,9.10
2019-04-25T01:52:36.836Z,9.10
2019-04-25T01:55:07.817Z,9.10
2019-04-25T01:57:36.711Z,9.10
2019-04-25T02:00:07.323Z,9.00
2019-04-25T02:02:36.110Z,9.00
2019-04-25T02:05:05.929Z,8.90
2019-04-25T02:07:34.655Z,8.90
2019-04-25T02:10:04.627Z,8.80
2019-04-25T02:12:35.018Z,8.80
2019-04-25T02:15:06.231Z,8.80
2019-04-25T02:17:35.216Z,8.80
2019-04-25T02:20:05.854Z,8.90
2019-04-25T02:22:35.659Z,8.80
2019-04-25T02:25:05.758Z,8.80
2019-04-25T02:27:35.875Z,8.80
2019-04-25T02:30:07.183Z,8.70
2019-04-25T02:32:37.425Z,8.70
2019-04-25T02:35:09.367Z,8.70
2019-04-25T02:37:38.597Z,8.60
2019-04-25T02:40:08.686Z,8.60
2019-04-25T02:42:37.692Z,8.60
2019-04-25T02:45:10.636Z,8.50
2019-04-25T02:47:41.290Z,8.50
2019-04-25T02:50:11.642Z,8.50
2019-04-25T02:52:44.196Z,8.50
2019-04-25T02:55:28.094Z,8.50
2019-04-25T02:57:44.914Z,8.50
2019-04-25T03:00:16.316Z,8.50
2019-04-25T03:02:45.066Z,8.40
2019-04-25T03:05:14.347Z,8.40
2019-04-25T03:07:44.543Z,8.40
2019-04-25T03:10:14.806Z,8.40
2019-04-25T03:12:44.693Z,8.50
2019-04-25T03:15:14.600Z,8.50
2019-04-25T03:17:44.502Z,8.50
2019-04-25T03:20:15.637Z,8.40
2019-04-25T03:22:44.795Z,8.40
2019-04-25T03:25:17.183Z,8.30
2019-04-25T03:27:44.209Z,8.10
2019-04-25T03:30:17.975Z,8.10
2019-04-25T03:32:47.089Z,8.10
2019-04-25T03:35:15.935Z,8.00
2019-04-25T03:37:44.585Z,8.00
2019-04-25T03:40:13.965Z,7.90
2019-04-25T03:42:43.891Z,7.90
2019-04-25T03:45:14.036Z,7.90
2019-04-25T03:47:43.323Z,7.90
2019-04-25T03:50:13.833Z,7.90
2019-04-25T03:52:43.606Z,8.10
2019-04-25T03:55:14.264Z,8.30
2019-04-25T03:57:44.339Z,8.50
2019-04-25T04:00:14.619Z,8.60
2019-04-25T04:02:44.385Z,8.70
2019-04-25T04:05:13.919Z,8.80
2019-04-25T04:07:43.599Z,8.80
2019-04-25T04:10:14.480Z,9.00
2019-04-25T04:12:44.351Z,9.20
2019-04-25T04:15:14.899Z,9.30
2019-04-25T04:17:45.854Z,9.40
2019-04-25T04:20:15.859Z,9.50
2019-04-25T04:22:46.286Z,9.60
2019-04-25T04:25:16.596Z,9.70
2019-04-25T04:27:45.265Z,9.90
2019-04-25T04:30:15.313Z,10.10
2019-04-25T04:32:44.227Z,10.20
2019-04-25T04:35:14.412Z,10.30
2019-04-25T04:37:44.185Z,10.50
2019-04-25T04:40:15.835Z,10.70
2019-04-25T04:42:44.491Z,10.80
2019-04-25T04:45:15.457Z,10.90
2019-04-25T04:47:47.343Z,11.00
2019-04-25T04:50:16.639Z,11.00
2019-04-25T04:52:45.589Z,11.10
2019-04-25T04:55:16.052Z,11.30
2019-04-25T04:57:44.973Z,11.40
2019-04-25T05:00:15.500Z,11.60
2019-04-25T05:02:45.841Z,11.80
2019-04-25T05:05:17.042Z,12.10
2019-04-25T05:07:47.430Z,12.30
2019-04-25T05:10:18.774Z,12.40
2019-04-25T05:12:47.906Z,12.50
2019-04-25T05:15:17.862Z,13.00
2019-04-25T05:17:46.978Z,13.30
2019-04-25T05:20:17.485Z,13.50
2019-04-25T05:22:46.388Z,13.50
2019-04-25T05:25:16.440Z,13.50
2019-04-25T05:27:57.647Z,13.60
2019-04-25T05:30:19.097Z,13.60
2019-04-25T05:32:47.929Z,13.70
2019-04-25T05:35:17.722Z,14.00
2019-04-25T05:37:46.619Z,14.40
2019-04-25T05:40:16.268Z,14.50
2019-04-25T05:42:47.508Z,14.70
2019-04-25T05:45:19.074Z,14.90
2019-04-25T05:47:48.671Z,14.90
2019-04-25T05:50:17.871Z,14.90
2019-04-25T05:52:46.655Z,15.20
2019-04-25T05:55:17.289Z,15.00
2019-04-25T05:57:49.983Z,15.60
2019-04-25T06:00:16.673Z,15.90
2019-04-25T06:02:46.514Z,15.50
2019-04-25T06:05:15.527Z,15.40
2019-04-25T06:07:44.326Z,15.50
2019-04-25T06:10:15.073Z,15.20
2019-04-25T06:12:45.671Z,14.90
2019-04-25T06:15:14.791Z,15.40
2019-04-25T06:17:43.577Z,16.00
2019-04-25T06:20:14.363Z,16.30
2019-04-25T06:22:44.597Z,15.80
2019-04-25T06:25:16.422Z,15.70
2019-04-25T06:27:56.475Z,15.60
2019-04-25T06:30:18.567Z,15.50
2019-04-25T06:32:47.342Z,15.10
2019-04-25T06:35:16.546Z,15.40
2019-04-25T06:37:46.422Z,14.90
2019-04-25T06:40:17.291Z,14.20
2019-04-25T06:42:46.803Z,14.10
2019-04-25T06:45:18.163Z,14.70
2019-04-25T06:47:48.756Z,15.10
2019-04-25T06:50:18.999Z,15.70
2019-04-25T06:52:48.071Z,16.30
2019-04-25T06:55:16.913Z,16.90
2019-04-25T06:57:45.894Z,17.30
2019-04-25T07:00:17.452Z,18.20
2019-04-25T07:02:46.431Z,17.80
2019-04-25T07:05:26.490Z,16.90
2019-04-25T07:07:46.952Z,17.20
2019-04-25T07:10:16.093Z,18.00
2019-04-25T07:12:44.982Z,18.20
2019-04-25T07:15:14.433Z,18.00
2019-04-25T07:17:43.621Z,17.90
2019-04-25T07:20:15.452Z,17.30
2019-04-25T07:22:44.309Z,17.10
2019-04-25T07:25:14.773Z,16.70
2019-04-25T07:27:45.180Z,16.40
2019-04-25T07:30:26.859Z,16.20
2019-04-25T07:32:48.620Z,16.20
2019-04-25T07:35:17.518Z,16.70
2019-04-25T07:37:46.351Z,18.00
2019-04-25T07:40:16.947Z,18.50
2019-04-25T07:42:45.762Z,19.10
2019-04-25T07:45:16.366Z,19.20
2019-04-25T07:47:45.348Z,18.80
2019-04-25T07:50:15.363Z,18.40
2019-04-25T07:52:45.087Z,18.10
2019-04-25T07:55:14.069Z,17.60
2019-04-25T07:57:44.241Z,17.40
2019-04-25T08:00:15.509Z,17.30
2019-04-25T08:02:44.524Z,17.10
2019-04-25T08:05:15.852Z,16.90
2019-04-25T08:07:44.618Z,17.00
2019-04-25T08:10:14.409Z,17.10
2019-04-25T08:12:47.269Z,17.20
2019-04-25T08:15:17.908Z,17.30
2019-04-25T08:17:48.289Z,17.50
2019-04-25T08:20:18.128Z,17.30
2019-04-25T08:22:55.434Z,17.60
2019-04-25T08:25:17.611Z,17.90
2019-04-25T08:27:46.418Z,18.20
2019-04-25T08:30:15.478Z,18.90
2019-04-25T08:32:44.272Z,19.70
2019-04-25T08:35:13.945Z,20.30
2019-04-25T08:37:44.168Z,19.80
2019-04-25T08:40:14.335Z,19.20
2019-04-25T08:42:44.183Z,18.90
2019-04-25T08:45:14.890Z,18.60
2019-04-25T08:47:43.969Z,18.50
2019-04-25T08:50:26.846Z,18.20
2019-04-25T08:52:46.269Z,18.20
2019-04-25T08:55:16.885Z,18.30
2019-04-25T08:57:47.143Z,18.50
2019-04-25T09:00:18.862Z,19.20
2019-04-25T09:02:49.168Z,19.50
2019-04-25T09:05:20.040Z,19.30
2019-04-25T09:07:48.843Z,18.80
2019-04-25T09:10:17.589Z,18.20
2019-04-25T09:12:46.455Z,17.90
2019-04-25T09:15:15.764Z,17.60
2019-04-25T09:17:46.977Z,17.40
2019-04-25T09:20:15.490Z,17.30
2019-04-25T09:22:45.259Z,17.30
2019-04-25T09:25:14.984Z,17.20
2019-04-25T09:27:45.365Z,17.30
2019-04-25T09:30:14.490Z,17.30
2019-04-25T09:32:44.625Z,17.40
2019-04-25T09:35:13.853Z,17.30
2019-04-25T09:37:44.774Z,17.30
2019-04-25T09:40:14.709Z,17.20
2019-04-25T09:42:45.078Z,17.10
2019-04-25T09:45:16.951Z,17.20
2019-04-25T09:47:47.304Z,17.20
2019-04-25T09:50:17.813Z,17.30
2019-04-25T09:52:47.099Z,17.40
2019-04-25T09:55:17.534Z,17.50
2019-04-25T09:57:47.976Z,17.60
2019-04-25T10:00:19.026Z,17.60
2019-04-25T10:02:47.773Z,17.70
2019-04-25T10:05:16.632Z,17.70
2019-04-25T10:07:46.213Z,17.80
2019-04-25T10:10:16.383Z,17.80
2019-04-25T10:12:45.323Z,17.80
2019-04-25T10:15:16.986Z,17.80
2019-04-25T10:17:46.250Z,17.80
2019-04-25T10:20:17.813Z,17.80
2019-04-25T10:22:46.686Z,17.90
2019-04-25T10:25:16.691Z,17.90
2019-04-25T10:27:48.198Z,17.90
2019-04-25T10:30:23.079Z,18.00
2019-04-25T10:32:49.540Z,18.20
2019-04-25T10:35:18.368Z,18.40
2019-04-25T10:37:47.155Z,18.50
2019-04-25T10:40:16.770Z,18.80
2019-04-25T10:42:48.092Z,18.90
2019-04-25T10:45:23.417Z,19.00
2019-04-25T10:47:47.240Z,19.10
2019-04-25T10:50:16.514Z,19.40
2019-04-25T10:52:47.039Z,19.50
2019-04-25T10:55:16.027Z,19.40
2019-04-25T10:57:45.510Z,19.40
2019-04-25T11:00:19.670Z,19.80
2019-04-25T11:02:48.496Z,20.20
2019-04-25T11:05:17.733Z,20.50
2019-04-25T11:07:46.625Z,20.60
2019-04-25T11:10:15.804Z,21.50
2019-04-25T11:12:45.932Z,21.80
2019-04-25T11:15:15.073Z,22.20
2019-04-25T11:17:45.849Z,22.40
2019-04-25T11:20:17.110Z,21.80
2019-04-25T11:22:45.928Z,22.00
2019-04-25T11:25:15.000Z,22.40
2019-04-25T11:27:47.340Z,22.90
2019-04-25T11:30:17.428Z,22.20
2019-04-25T11:32:46.221Z,21.90
2019-04-25T11:35:15.169Z,22.10
2019-04-25T11:37:43.993Z,22.10
2019-04-25T11:40:17.059Z,22.20
2019-04-25T11:42:47.098Z,22.90
2019-04-25T11:45:16.390Z,22.90
2019-04-25T11:47:46.949Z,23.20
2019-04-25T11:50:16.221Z,23.40
2019-04-25T11:52:46.838Z,23.00
2019-04-25T11:55:16.839Z,22.70
2019-04-25T11:57:49.191Z,22.90
2019-04-25T12:00:22.184Z,22.70
2019-04-25T12:02:49.690Z,22.60
2019-04-25T12:05:18.832Z,22.20
2019-04-25T12:08:07.008Z,22.20
2019-04-25T12:10:36.563Z,23.00
2019-04-25T12:13:05.486Z,23.60
2019-04-25T12:15:35.219Z,23.90
2019-04-25T12:18:04.657Z,24.30
2019-04-25T12:20:34.060Z,24.80
2019-04-25T12:23:08.548Z,24.40
2019-04-25T12:25:34.111Z,24.50
2019-04-25T12:28:04.567Z,25.00
2019-04-25T12:30:38.323Z,25.00
2019-04-25T12:33:06.180Z,24.80
2019-04-25T12:35:35.668Z,24.50
2019-04-25T12:38:04.773Z,24.60
2019-04-25T12:40:34.337Z,24.20
2019-04-25T12:43:05.263Z,23.70
2019-04-25T12:45:35.532Z,24.00
2019-04-25T12:48:07.632Z,23.80
2019-04-25T12:50:36.572Z,23.60
2019-04-25T12:53:05.484Z,23.70
2019-04-25T12:55:35.922Z,24.10
2019-04-25T12:58:06.643Z,25.50
2019-04-25T13:00:47.268Z,24.90
2019-04-25T13:03:06.975Z,23.90
2019-04-25T13:05:36.173Z,23.10
2019-04-25T13:08:05.136Z,22.70
2019-04-25T13:10:34.969Z,23.40
2019-04-25T13:13:04.058Z,24.00
2019-04-25T13:15:35.693Z,23.40
2019-04-25T13:18:04.913Z,22.90
2019-04-25T13:20:34.788Z,22.70
2019-04-25T13:23:04.786Z,22.70
2019-04-25T13:25:34.598Z,22.70
2019-04-25T13:28:07.155Z,22.90
2019-04-25T13:30:37.215Z,23.00
2019-04-25T13:33:08.583Z,22.90
2019-04-25T13:35:39.128Z,23.10
2019-04-25T13:38:08.603Z,23.40
2019-04-25T13:40:46.365Z,24.10
2019-04-25T13:43:16.654Z,24.40
2019-04-25T13:45:45.568Z,24.30
2019-04-25T13:48:15.735Z,23.70
2019-04-25T13:50:44.895Z,23.60
2019-04-25T13:53:15.332Z,23.60
2019-04-25T13:55:44.343Z,23.70
2019-04-25T13:58:14.416Z,23.60
2019-04-25T14:00:44.262Z,23.60
2019-04-25T14:03:13.123Z,23.50
2019-04-25T14:05:43.865Z,23.60
2019-04-25T14:08:14.950Z,23.80
2019-04-25T14:10:44.335Z,24.10
2019-04-25T14:13:13.550Z,24.50
2019-04-25T14:15:45.037Z,24.40
2019-04-25T14:18:14.086Z,24.30
2019-04-25T14:20:44.522Z,24.40
2019-04-25T14:23:15.069Z,24.20
2019-04-25T14:25:44.243Z,24.30
2019-04-25T14:28:14.166Z,24.00
2019-04-25T14:30:44.048Z,23.60
2019-04-25T14:33:14.350Z,23.50
2019-04-25T14:35:43.263Z,23.50
2019-04-25T14:38:13.758Z,23.50
2019-04-25T14:40:42.947Z,23.70
2019-04-25T14:43:11.828Z,23.50
2019-04-25T14:45:44.790Z,23.30
2019-04-25T14:48:11.792Z,23.10
2019-04-25T14:50:40.699Z,22.90
2019-04-25T14:53:10.217Z,22.80
2019-04-25T14:55:41.235Z,22.80
2019-04-25T14:58:11.596Z,23.00
2019-04-25T15:00:42.039Z,23.00
2019-04-25T15:03:11.368Z,22.80
2019-04-25T15:05:42.163Z,23.00
2019-04-25T15:08:12.039Z,23.00
2019-04-25T15:10:40.897Z,22.90
2019-04-25T15:13:10.122Z,22.60
2019-04-25T15:15:39.047Z,22.60
2019-04-25T15:18:07.992Z,22.70
2019-04-25T15:20:36.782Z,22.60
2019-04-25T15:23:05.604Z,22.60
2019-04-25T15:25:34.597Z,22.70
2019-04-25T15:28:03.602Z,22.70
2019-04-25T15:30:34.056Z,22.70
2019-04-25T15:33:03.421Z,22.70
2019-04-25T15:35:34.505Z,22.60
2019-04-25T15:38:05.146Z,22.70
2019-04-25T15:40:36.501Z,22.90
2019-04-25T15:43:06.989Z,22.90
2019-04-25T15:45:37.391Z,22.80
2019-04-25T15:48:07.591Z,22.70
2019-04-25T15:50:36.844Z,22.60
2019-04-25T15:53:05.750Z,22.50
2019-04-25T15:55:34.790Z,22.60
2019-04-25T15:58:03.911Z,22.70
2019-04-25T16:00:35.012Z,22.70
2019-04-25T16:03:05.438Z,22.70
2019-04-25T16:05:35.569Z,22.80
2019-04-25T16:08:06.982Z,22.70
2019-04-25T16:10:36.537Z,22.60
2019-04-25T16:13:06.111Z,22.70
2019-04-25T16:15:36.112Z,22.70
2019-04-25T16:18:06.925Z,22.70
2019-04-25T16:20:37.207Z,22.70
2019-04-25T16:23:06.605Z,22.70
2019-04-25T16:25:35.540Z,22.80
2019-04-25T16:28:04.889Z,22.90
2019-04-25T16:30:34.549Z,22.90
2019-04-25T16:33:04.373Z,22.90
2019-04-25T16:35:33.475Z,22.90
2019-04-25T16:38:03.931Z,22.80
2019-04-25T16:40:33.847Z,22.80
2019-04-25T16:43:05.598Z,22.80
2019-04-25T16:45:38.919Z,22.70
2019-04-25T16:48:07.761Z,22.70
2019-04-25T16:50:36.666Z,22.60
2019-04-25T16:53:06.155Z,22.70
2019-04-25T16:55:36.691Z,22.70
2019-04-25T16:58:06.734Z,22.70
2019-04-25T17:00:37.178Z,22.60
2019-04-25T17:03:08.116Z,22.50
2019-04-25T17:05:37.804Z,22.50
2019-04-25T17:08:07.108Z,22.40
2019-04-25T17:10:36.929Z,22.30
2019-04-25T17:13:07.310Z,22.40
2019-04-25T17:15:38.369Z,22.30
2019-04-25T17:18:09.044Z,22.20
2019-04-25T17:20:39.711Z,22.00
2019-04-25T17:23:09.593Z,21.90
2019-04-25T17:25:40.026Z,21.80
2019-04-25T17:28:09.653Z,21.70
2019-04-25T17:30:42.154Z,21.60
2019-04-25T17:33:14.344Z,21.60
2019-04-25T17:35:45.001Z,21.50
2019-04-25T17:38:15.938Z,21.40
2019-04-25T17:40:46.206Z,21.30
2019-04-25T17:43:15.175Z,21.30
2019-04-25T17:45:44.065Z,21.30
2019-04-25T17:48:13.536Z,21.30
2019-04-25T17:50:43.966Z,21.30
2019-04-25T17:53:13.180Z,21.20
2019-04-25T17:55:42.063Z,21.20
2019-04-25T17:58:13.453Z,21.20
2019-04-25T18:00:45.068Z,21.20
2019-04-25T18:03:14.190Z,21.20
2019-04-25T18:05:43.981Z,21.10
2019-04-25T18:08:13.272Z,21.00
2019-04-25T18:10:42.102Z,20.90
2019-04-25T18:13:10.985Z,20.80
2019-04-25T18:15:40.458Z,20.70
2019-04-25T18:18:10.864Z,20.60
2019-04-25T18:20:41.213Z,20.50
2019-04-25T18:23:10.065Z,20.30
2019-04-25T18:25:41.141Z,20.20
2019-04-25T18:28:11.683Z,20.10
2019-04-25T18:30:41.284Z,19.90
2019-04-25T18:33:11.703Z,19.70
2019-04-25T18:35:43.027Z,19.50
2019-04-25T18:38:14.387Z,19.20
2019-04-25T18:40:44.953Z,18.60
2019-04-25T18:43:15.385Z,18.20
2019-04-25T18:45:46.516Z,17.90
2019-04-25T18:48:16.564Z,17.70
2019-04-25T18:50:45.529Z,17.50
2019-04-25T18:53:14.666Z,17.40
2019-04-25T18:55:45.774Z,17.30
2019-04-25T18:58:16.338Z,17.30
2019-04-25T19:00:47.795Z,17.20
2019-04-25T19:03:23.372Z,17.10
2019-04-25T19:05:52.332Z,17.00
2019-04-25T19:08:22.589Z,16.90
2019-04-25T19:10:51.778Z,16.90
2019-04-25T19:13:22.013Z,16.80
2019-04-25T19:15:51.487Z,16.80
2019-04-25T19:18:21.287Z,16.80
2019-04-25T19:20:50.510Z,16.70
2019-04-25T19:23:19.466Z,16.60
2019-04-25T19:25:48.439Z,16.60
2019-04-25T19:28:17.362Z,16.60
2019-04-25T19:30:47.671Z,16.50
2019-04-25T19:33:16.549Z,16.50
2019-04-25T19:35:45.758Z,16.50
2019-04-25T19:38:15.191Z,16.50
2019-04-25T19:40:44.631Z,16.40
2019-04-25T19:43:15.495Z,16.40
2019-04-25T19:45:44.841Z,16.40
2019-04-25T19:48:16.443Z,16.40
2019-04-25T19:50:45.923Z,16.40
2019-04-25T19:53:16.071Z,16.30
2019-04-25T19:55:45.469Z,16.30
2019-04-25T19:58:14.557Z,16.20
2019-04-25T20:00:44.238Z,16.20
2019-04-25T20:03:14.975Z,16.10
2019-04-25T20:05:46.563Z,16.10
2019-04-25T20:08:16.999Z,16.10
2019-04-25T20:10:47.559Z,16.10
2019-04-25T20:13:17.193Z,16.00
2019-04-25T20:15:47.600Z,16.00
2019-04-25T20:18:16.600Z,15.90
2019-04-25T20:20:46.033Z,15.80
2019-04-25T20:23:14.967Z,15.80
2019-04-25T20:25:44.876Z,15.80
2019-04-25T20:28:14.363Z,15.70
2019-04-25T20:30:44.488Z,15.70
2019-04-25T20:33:13.804Z,15.60
2019-04-25T20:35:43.343Z,15.50
2019-04-25T20:38:12.302Z,15.50
2019-04-25T20:40:41.166Z,15.40
2019-04-25T20:43:10.042Z,15.30
2019-04-25T20:45:38.888Z,15.20
2019-04-25T20:48:07.793Z,15.10
2019-04-25T20:50:36.703Z,15.00
2019-04-25T20:53:05.547Z,14.90
2019-04-25T20:55:34.587Z,14.90
2019-04-25T20:58:03.440Z,14.80
2019-04-25T21:00:36.643Z,14.70
2019-04-25T21:03:05.807Z,14.70
2019-04-25T21:05:34.671Z,14.60
2019-04-25T21:08:03.579Z,14.60
2019-04-25T21:10:32.435Z,14.60
2019-04-25T21:13:02.225Z,14.50
2019-04-25T21:15:32.693Z,14.40
2019-04-25T21:18:03.071Z,14.40
2019-04-25T21:20:31.954Z,14.20
2019-04-25T21:23:00.909Z,14.10
2019-04-25T21:25:29.801Z,14.00
2019-04-25T21:27:58.659Z,13.90
2019-04-25T21:30:27.639Z,13.80
2019-04-25T21:32:57.251Z,13.80
2019-04-25T21:35:26.692Z,13.70
2019-04-25T21:37:55.579Z,13.70
2019-04-25T21:40:26.805Z,13.60
2019-04-25T21:42:57.991Z,13.60
2019-04-25T21:45:27.452Z,13.60
2019-04-25T21:47:58.742Z,13.50
2019-04-25T21:50:27.899Z,13.50
2019-04-25T21:52:57.936Z,13.40
2019-04-25T21:55:28.132Z,13.40
2019-04-25T21:57:58.069Z,13.40
2019-04-25T22:00:29.842Z,13.40
2019-04-25T22:03:00.448Z,13.40
2019-04-25T22:05:29.557Z,13.40
2019-04-25T22:08:00.517Z,13.40
2019-04-25T22:10:29.732Z,13.40
2019-04-25T22:13:11.329Z,13.40
2019-04-25T22:15:29.335Z,13.40
2019-04-25T22:17:58.444Z,13.30
2019-04-25T22:20:27.646Z,13.20
2019-04-25T22:22:57.027Z,13.20
2019-04-25T22:25:26.982Z,13.10
2019-04-25T22:27:56.577Z,13.10
2019-04-25T22:30:26.049Z,13.00
2019-04-25T22:32:55.095Z,13.00
2019-04-25T22:35:25.499Z,13.00
2019-04-25T22:37:54.320Z,12.90
2019-04-25T22:40:23.205Z,12.90
2019-04-25T22:42:52.765Z,12.80
2019-04-25T22:45:23.135Z,12.80
2019-04-25T22:47:52.258Z,12.80
2019-04-25T22:50:21.868Z,12.70
2019-04-25T22:52:50.755Z,12.70
2019-04-25T22:55:19.582Z,12.60
2019-04-25T22:57:48.584Z,12.60
2019-04-25T23:00:19.158Z,12.60
2019-04-25T23:02:49.819Z,12.50
2019-04-25T23:05:20.182Z,12.40
2019-04-25T23:07:49.059Z,12.40
2019-04-25T23:10:18.437Z,12.30
2019-04-25T23:12:48.967Z,12.30
2019-04-25T23:15:17.865Z,12.20
2019-04-25T23:17:47.906Z,12.20
2019-04-25T23:20:17.172Z,12.10
2019-04-25T23:22:46.045Z,12.00
2019-04-25T23:25:16.807Z,12.00
2019-04-25T23:27:47.199Z,12.00
2019-04-25T23:30:18.060Z,12.00
2019-04-25T23:32:46.888Z,11.90
2019-04-25T23:35:25.371Z,11.90
2019-04-25T23:37:47.165Z,11.90
2019-04-25T23:40:16.680Z,12.00
2019-04-25T23:42:45.516Z,11.90
2019-04-25T23:45:14.565Z,11.90
2019-04-25T23:47:43.499Z,11.80
2019-04-25T23:50:12.964Z,11.80
2019-04-25T23:52:41.793Z,11.80
2019-04-25T23:55:13.076Z,11.80
2019-04-25T23:57:44.205Z,11.70
